Meers, Oklahoma
Current Conditions -  °F | °C
As of 12:58 AM on Wednesday 22 Oct 2014 (Local Time) from KFSI Reporting Station
Clear Clear  
Wind Chill: 61°   Ceiling: Unl
Heat Index: 61°   Visibility: 10mi
Dew Point: 55°   Wind: 6mph
Humidity: 80%   Direction: 170°S
Pressure: 30.05"   Gusts: NA
Location:  34.78°N, 98.58°W
Report Text: KFSI 220558Z AUTO 17005KT 10SM CLR 16/13 A3005 RMK AO2 SLP169 T01620128 10228 20162 402830136 58001
Loading
Personal Weather Stations






























Interactive Weather Map New forecast layout! Learn more

10-Day Weather Forecast

Advertisements
Track Severe Weather on mobile